createdAt,value
2023-01-31T00:00:00.562Z,102154.00
2023-01-31T00:02:27.860Z,102153.00
2023-01-31T00:04:55.113Z,102155.00
2023-01-31T00:07:22.635Z,102140.00
2023-01-31T00:09:49.821Z,102155.00
2023-01-31T00:12:17.132Z,102152.00
2023-01-31T00:14:44.442Z,102160.00
2023-01-31T00:17:11.725Z,102160.00
2023-01-31T00:19:39.623Z,102144.00
2023-01-31T00:22:06.770Z,102150.00
2023-01-31T00:25:32.179Z,102152.00
2023-01-31T00:27:59.423Z,102141.00
2023-01-31T00:30:26.623Z,102144.00
2023-01-31T00:33:35.105Z,102149.00
2023-01-31T00:37:25.728Z,102155.00
2023-01-31T00:39:52.860Z,102161.00
2023-01-31T00:42:20.129Z,102168.00
2023-01-31T00:44:47.355Z,102161.00
2023-01-31T00:47:14.608Z,102174.00
2023-01-31T00:49:41.900Z,102174.00
2023-01-31T00:52:09.129Z,102179.00
2023-01-31T00:54:37.183Z,102172.00
2023-01-31T00:57:04.534Z,102181.00
2023-01-31T00:59:31.699Z,102169.00
2023-01-31T01:01:58.978Z,102167.00
2023-01-31T01:04:26.366Z,102167.00
2023-01-31T01:06:53.525Z,102172.00
2023-01-31T01:09:23.044Z,102170.00
2023-01-31T01:11:50.348Z,102167.00
2023-01-31T01:14:18.059Z,102155.00
2023-01-31T01:16:45.468Z,102164.00
2023-01-31T01:19:17.994Z,102155.00
2023-01-31T01:21:45.611Z,102141.00
2023-01-31T01:24:18.111Z,102158.00
2023-01-31T01:26:46.105Z,102161.00
2023-01-31T01:29:13.968Z,102156.00
2023-01-31T01:31:41.805Z,102156.00
2023-01-31T01:34:14.965Z,102135.00
2023-01-31T01:36:43.108Z,102131.00
2023-01-31T01:39:12.285Z,102137.00
2023-01-31T01:41:41.159Z,102122.00
2023-01-31T01:44:46.434Z,102130.00
2023-01-31T01:47:39.535Z,102133.00
2023-01-31T01:50:33.088Z,102115.00
2023-01-31T01:53:20.717Z,102113.00
2023-01-31T01:56:02.386Z,102115.00
2023-01-31T01:59:44.460Z,102118.00
2023-01-31T02:02:13.970Z,102117.00
2023-01-31T02:04:46.544Z,102118.00
2023-01-31T02:07:14.276Z,102116.00
2023-01-31T02:10:12.528Z,102116.00
2023-01-31T02:12:40.304Z,102110.00
2023-01-31T02:15:08.891Z,102120.00
2023-01-31T02:17:36.153Z,102137.00
2023-01-31T02:20:24.364Z,102134.00
2023-01-31T02:23:47.974Z,102147.00
2023-01-31T02:27:05.113Z,102145.00
2023-01-31T02:30:14.806Z,102144.00
2023-01-31T02:32:57.805Z,102147.00
2023-01-31T02:35:31.885Z,102141.00
2023-01-31T02:38:10.362Z,102156.00
2023-01-31T02:41:16.517Z,102153.00
2023-01-31T02:44:19.572Z,102154.00
2023-01-31T02:47:01.580Z,102144.00
2023-01-31T02:49:47.312Z,102152.00
2023-01-31T02:52:54.477Z,102154.00
2023-01-31T02:56:08.607Z,102156.00
2023-01-31T02:58:39.723Z,102146.00
2023-01-31T03:01:15.140Z,102151.00
2023-01-31T03:03:42.805Z,102142.00
2023-01-31T03:06:23.331Z,102141.00
2023-01-31T03:09:28.433Z,102134.00
2023-01-31T03:12:20.973Z,102119.00
2023-01-31T03:15:13.919Z,102115.00
2023-01-31T03:18:12.724Z,102119.00
2023-01-31T03:20:54.923Z,102101.00
2023-01-31T03:23:27.109Z,102106.00
2023-01-31T03:25:54.524Z,102102.00
2023-01-31T03:28:32.680Z,102112.00
2023-01-31T03:31:19.108Z,102108.00
2023-01-31T03:33:52.493Z,102106.00
2023-01-31T03:37:04.035Z,102102.00
2023-01-31T03:39:52.620Z,102100.00
2023-01-31T03:42:34.404Z,102105.00
2023-01-31T03:45:20.241Z,102091.00
2023-01-31T03:47:50.769Z,102074.00
2023-01-31T03:50:21.417Z,102081.00
2023-01-31T03:53:32.599Z,102084.00
2023-01-31T03:56:21.543Z,102075.00
2023-01-31T03:59:01.034Z,102074.00
2023-01-31T04:01:35.116Z,102074.00
2023-01-31T04:04:10.728Z,102057.00
2023-01-31T04:06:38.335Z,102073.00
2023-01-31T04:09:06.078Z,102060.00
2023-01-31T04:11:39.663Z,102058.00
2023-01-31T04:14:08.829Z,102053.00
2023-01-31T04:16:36.156Z,102061.00
2023-01-31T04:19:03.324Z,102053.00
2023-01-31T04:21:30.685Z,102042.00
2023-01-31T04:23:58.081Z,102064.00
2023-01-31T04:26:25.467Z,102059.00
2023-01-31T04:28:52.695Z,102062.00
2023-01-31T04:31:19.896Z,102059.00
2023-01-31T04:33:49.638Z,102059.00
2023-01-31T04:36:16.891Z,102054.00
2023-01-31T04:38:44.230Z,102057.00
2023-01-31T04:41:11.500Z,102063.00
2023-01-31T04:43:38.820Z,102061.00
2023-01-31T04:46:06.293Z,102059.00
2023-01-31T04:48:33.732Z,102059.00
2023-01-31T04:51:01.180Z,102043.00
2023-01-31T04:53:29.127Z,102052.00
2023-01-31T04:55:56.486Z,102031.00
2023-01-31T04:58:24.149Z,102039.00
2023-01-31T05:00:51.554Z,102046.00
2023-01-31T05:03:18.966Z,102034.00
2023-01-31T05:05:49.461Z,102022.00
2023-01-31T05:08:17.578Z,102038.00
2023-01-31T05:10:44.980Z,102022.00
2023-01-31T05:13:12.479Z,102010.00
2023-01-31T05:15:41.155Z,102023.00
2023-01-31T05:18:08.623Z,102024.00
2023-01-31T05:20:41.042Z,102033.00
2023-01-31T05:23:08.550Z,102035.00
2023-01-31T05:25:37.496Z,102029.00
2023-01-31T05:32:05.553Z,102018.00
2023-01-31T05:34:33.699Z,102015.00
2023-01-31T05:37:02.542Z,102003.00
2023-01-31T05:39:30.219Z,102018.00
2023-01-31T05:41:57.623Z,102008.00
2023-01-31T05:44:57.470Z,102012.00
2023-01-31T05:47:25.006Z,102010.00
2023-01-31T05:49:52.259Z,102003.00
2023-01-31T05:52:19.402Z,101987.00
2023-01-31T05:54:46.541Z,101984.00
2023-01-31T05:57:15.521Z,101985.00
2023-01-31T05:59:43.239Z,101992.00
2023-01-31T06:02:11.757Z,101987.00
2023-01-31T06:04:39.123Z,101985.00
2023-01-31T06:07:06.543Z,101974.00
2023-01-31T06:09:34.284Z,101984.00
2023-01-31T06:12:02.464Z,101991.00
2023-01-31T06:14:29.552Z,101992.00
2023-01-31T06:16:56.770Z,101999.00
2023-01-31T06:19:25.519Z,101978.00
2023-01-31T06:21:53.211Z,101975.00
2023-01-31T06:24:22.784Z,101979.00
2023-01-31T06:26:50.075Z,101977.00
2023-01-31T06:29:17.320Z,101980.00
2023-01-31T06:31:45.800Z,101975.00
2023-01-31T06:34:13.154Z,101992.00
2023-01-31T06:36:40.504Z,101996.00
2023-01-31T06:39:07.948Z,102003.00
2023-01-31T06:41:35.321Z,102010.00
2023-01-31T06:48:02.828Z,102002.00
2023-01-31T06:51:45.107Z,101999.00
2023-01-31T06:54:12.225Z,102012.00
2023-01-31T06:56:39.437Z,102010.00
2023-01-31T06:59:06.885Z,102007.00
2023-01-31T07:01:34.578Z,101990.00
2023-01-31T07:04:01.878Z,102008.00
2023-01-31T07:06:31.558Z,102001.00
2023-01-31T07:08:58.814Z,101995.00
2023-01-31T07:11:26.260Z,101978.00
2023-01-31T07:13:56.076Z,101954.00
2023-01-31T07:16:25.701Z,101964.00
2023-01-31T07:18:54.929Z,101968.00
2023-01-31T07:21:24.223Z,101960.00
2023-01-31T07:23:52.073Z,101962.00
2023-01-31T07:26:19.620Z,101956.00
2023-01-31T07:28:47.060Z,101972.00
2023-01-31T07:31:15.787Z,101960.00
2023-01-31T07:33:43.414Z,101973.00
2023-01-31T07:36:16.803Z,101957.00
2023-01-31T07:38:44.086Z,101967.00
2023-01-31T07:41:12.334Z,101978.00
2023-01-31T07:43:39.682Z,101963.00
2023-01-31T07:46:10.782Z,101967.00
2023-01-31T07:48:38.846Z,101947.00
2023-01-31T07:51:07.177Z,101953.00
2023-01-31T07:53:42.339Z,101951.00
2023-01-31T07:56:16.917Z,101936.00
2023-01-31T07:58:46.189Z,101937.00
2023-01-31T08:01:42.242Z,101937.00
2023-01-31T08:04:21.231Z,101932.00
2023-01-31T08:06:53.588Z,101927.00
2023-01-31T08:09:21.192Z,101932.00
2023-01-31T08:11:48.555Z,101930.00
2023-01-31T08:14:15.920Z,101940.00
2023-01-31T08:16:45.422Z,101916.00
2023-01-31T08:19:12.743Z,101927.00
2023-01-31T08:21:40.018Z,101932.00
2023-01-31T08:24:07.970Z,101914.00
2023-01-31T08:26:35.403Z,101920.00
2023-01-31T08:29:03.402Z,101914.00
2023-01-31T08:31:31.065Z,101909.00
2023-01-31T08:33:58.859Z,101906.00
2023-01-31T08:36:32.070Z,101911.00
2023-01-31T08:39:00.393Z,101898.00
2023-01-31T08:41:30.468Z,101901.00
2023-01-31T08:43:58.995Z,101891.00
2023-01-31T08:46:31.042Z,101888.00
2023-01-31T08:49:02.208Z,101877.00
2023-01-31T08:51:30.407Z,101875.00
2023-01-31T08:53:57.769Z,101892.00
2023-01-31T08:56:28.884Z,101887.00
2023-01-31T08:58:58.044Z,101864.00
2023-01-31T09:01:25.698Z,101879.00
2023-01-31T09:03:57.319Z,101880.00
2023-01-31T09:06:27.772Z,101857.00
2023-01-31T09:08:59.219Z,101853.00
2023-01-31T09:11:30.691Z,101870.00
2023-01-31T09:13:58.440Z,101871.00
2023-01-31T09:16:25.827Z,101860.00
2023-01-31T09:18:54.364Z,101860.00
2023-01-31T09:21:22.988Z,101854.00
2023-01-31T09:23:57.284Z,101872.00
2023-01-31T09:26:25.394Z,101852.00
2023-01-31T09:28:52.631Z,101837.00
2023-01-31T09:31:22.146Z,101835.00
2023-01-31T09:33:49.480Z,101848.00
2023-01-31T09:36:21.084Z,101837.00
2023-01-31T09:38:49.059Z,101835.00
2023-01-31T09:42:13.506Z,101834.00
2023-01-31T09:44:45.459Z,101832.00
2023-01-31T09:47:30.918Z,101831.00
2023-01-31T09:50:16.725Z,101842.00
2023-01-31T09:52:44.112Z,101829.00
2023-01-31T09:55:23.259Z,101816.00
2023-01-31T09:58:12.994Z,101797.00
2023-01-31T10:01:09.091Z,101803.00
2023-01-31T10:04:17.491Z,101812.00
2023-01-31T10:07:01.515Z,101814.00
2023-01-31T10:09:43.954Z,101810.00
2023-01-31T10:12:42.220Z,101820.00
2023-01-31T10:15:37.236Z,101807.00
2023-01-31T10:18:22.819Z,101797.00
2023-01-31T10:20:57.311Z,101795.00
2023-01-31T10:23:44.656Z,101787.00
2023-01-31T10:26:34.794Z,101782.00
2023-01-31T10:29:22.032Z,101788.00
2023-01-31T10:32:04.843Z,101782.00
2023-01-31T10:34:51.498Z,101784.00
2023-01-31T10:37:44.561Z,101788.00
2023-01-31T10:40:36.982Z,101761.00
2023-01-31T10:43:17.322Z,101755.00
2023-01-31T10:45:44.771Z,101776.00
2023-01-31T10:56:48.888Z,101793.00
2023-01-31T10:59:35.329Z,101805.00
2023-01-31T11:02:03.642Z,101810.00
2023-01-31T11:04:32.357Z,101800.00
2023-01-31T11:07:21.558Z,101793.00
2023-01-31T11:09:54.687Z,101779.00
2023-01-31T11:12:40.850Z,101781.00
2023-01-31T11:15:18.427Z,101770.00
2023-01-31T11:17:48.385Z,101747.00
2023-01-31T11:20:35.752Z,101745.00
2023-01-31T11:23:07.391Z,101749.00
2023-01-31T11:25:38.886Z,101745.00
2023-01-31T11:28:22.189Z,101753.00
2023-01-31T11:30:54.692Z,101757.00
2023-01-31T11:33:56.673Z,101755.00
2023-01-31T11:36:24.558Z,101757.00
2023-01-31T11:43:06.250Z,101734.00
2023-01-31T11:45:38.656Z,101742.00
2023-01-31T11:48:22.535Z,101731.00
2023-01-31T11:51:00.916Z,101734.00
2023-01-31T11:53:51.767Z,101725.00
2023-01-31T11:56:27.768Z,101728.00
2023-01-31T12:03:08.302Z,101735.00
2023-01-31T12:06:25.861Z,101737.00
2023-01-31T12:08:59.062Z,101721.00
2023-01-31T12:11:31.997Z,101715.00
2023-01-31T12:19:15.196Z,101729.00
2023-01-31T12:22:00.797Z,101717.00
2023-01-31T12:25:16.060Z,101719.00
2023-01-31T12:28:22.366Z,101721.00
2023-01-31T12:31:28.672Z,101703.00
2023-01-31T12:34:20.646Z,101704.00
2023-01-31T12:37:02.118Z,101701.00
2023-01-31T12:39:56.714Z,101691.00
2023-01-31T12:42:51.532Z,101696.00
2023-01-31T12:45:26.494Z,101699.00
2023-01-31T12:48:37.809Z,101697.00
2023-01-31T12:51:44.064Z,101693.00
2023-01-31T12:54:41.384Z,101690.00
2023-01-31T12:57:44.527Z,101697.00
2023-01-31T13:00:44.933Z,101694.00
2023-01-31T13:03:38.115Z,101706.00
2023-01-31T13:10:56.094Z,101712.00
2023-01-31T13:14:39.125Z,101708.00
2023-01-31T13:17:13.988Z,101713.00
2023-01-31T13:19:55.565Z,101718.00
2023-01-31T13:22:56.730Z,101713.00
2023-01-31T13:25:54.912Z,101711.00
2023-01-31T13:28:43.471Z,101704.00
2023-01-31T13:31:28.723Z,101703.00
2023-01-31T13:34:24.556Z,101690.00
2023-01-31T13:37:12.065Z,101676.00
2023-01-31T13:39:55.302Z,101683.00
2023-01-31T13:42:42.172Z,101692.00
2023-01-31T13:45:21.550Z,101693.00
2023-01-31T13:47:59.534Z,101687.00
2023-01-31T13:51:01.493Z,101688.00
2023-01-31T13:54:14.258Z,101694.00
2023-01-31T13:56:42.552Z,101692.00
2023-01-31T13:59:11.761Z,101680.00
2023-01-31T14:01:49.418Z,101670.00
2023-01-31T14:05:04.211Z,101670.00
2023-01-31T14:07:31.956Z,101674.00
2023-01-31T14:09:59.017Z,101667.00
2023-01-31T14:12:36.916Z,101676.00
2023-01-31T14:15:47.887Z,101669.00
2023-01-31T14:23:22.704Z,101670.00
2023-01-31T14:27:05.069Z,101676.00
2023-01-31T14:29:56.952Z,101676.00
2023-01-31T14:32:47.532Z,101676.00
2023-01-31T14:35:14.868Z,101686.00
2023-01-31T14:38:09.787Z,101682.00
2023-01-31T14:40:46.292Z,101684.00
2023-01-31T14:43:16.285Z,101703.00
2023-01-31T14:46:23.175Z,101695.00
2023-01-31T14:49:22.585Z,101697.00
2023-01-31T14:52:35.306Z,101708.00
2023-01-31T14:55:43.003Z,101710.00
2023-01-31T14:58:25.299Z,101706.00
2023-01-31T15:00:58.800Z,101713.00
2023-01-31T15:04:04.827Z,101729.00
2023-01-31T15:06:41.111Z,101720.00
2023-01-31T15:09:35.514Z,101729.00
2023-01-31T15:12:02.889Z,101745.00
2023-01-31T15:14:45.290Z,101734.00
2023-01-31T15:17:36.255Z,101739.00
2023-01-31T15:20:32.686Z,101737.00
2023-01-31T15:23:09.215Z,101739.00
2023-01-31T15:25:45.185Z,101735.00
2023-01-31T15:28:42.272Z,101748.00
2023-01-31T15:31:35.459Z,101747.00
2023-01-31T15:34:15.020Z,101734.00
2023-01-31T15:37:21.809Z,101723.00
2023-01-31T15:39:58.811Z,101732.00
2023-01-31T15:42:30.655Z,101727.00
2023-01-31T15:45:30.537Z,101744.00
2023-01-31T15:48:16.495Z,101743.00
2023-01-31T15:50:59.320Z,101751.00
2023-01-31T15:53:31.405Z,101741.00
2023-01-31T15:56:04.908Z,101748.00
2023-01-31T15:58:34.424Z,101745.00
2023-01-31T16:01:03.662Z,101745.00
2023-01-31T16:03:39.496Z,101759.00
2023-01-31T16:06:38.113Z,101760.00
2023-01-31T16:09:08.339Z,101751.00
2023-01-31T16:11:36.819Z,101752.00
2023-01-31T16:14:10.734Z,101757.00
2023-01-31T16:16:38.358Z,101745.00
2023-01-31T16:19:06.568Z,101759.00
2023-01-31T16:21:43.661Z,101765.00
2023-01-31T16:24:20.570Z,101768.00
2023-01-31T16:27:13.238Z,101767.00
2023-01-31T16:29:43.986Z,101778.00
2023-01-31T16:32:20.307Z,101771.00
2023-01-31T16:35:02.544Z,101772.00
2023-01-31T16:37:46.018Z,101767.00
2023-01-31T16:40:23.653Z,101782.00
2023-01-31T16:43:02.632Z,101768.00
2023-01-31T16:45:33.921Z,101778.00
2023-01-31T16:48:22.545Z,101780.00
2023-01-31T16:50:53.561Z,101783.00
2023-01-31T16:53:40.243Z,101782.00
2023-01-31T16:56:22.427Z,101786.00
2023-01-31T16:58:57.729Z,101796.00
2023-01-31T17:01:35.247Z,101810.00
2023-01-31T17:04:18.635Z,101807.00
2023-01-31T17:07:00.678Z,101794.00
2023-01-31T17:09:28.600Z,101793.00
2023-01-31T17:11:57.084Z,101790.00
2023-01-31T17:14:24.637Z,101800.00
2023-01-31T17:16:54.289Z,101799.00
2023-01-31T17:19:21.632Z,101799.00
2023-01-31T17:21:50.433Z,101792.00
2023-01-31T17:24:24.336Z,101784.00
2023-01-31T17:26:53.849Z,101778.00
2023-01-31T17:29:21.840Z,101765.00
2023-01-31T17:41:32.907Z,101770.00
2023-01-31T17:44:06.720Z,101780.00
2023-01-31T17:46:34.731Z,101785.00
2023-01-31T17:53:40.492Z,101782.00
2023-01-31T17:56:15.629Z,101776.00
2023-01-31T17:58:42.843Z,101776.00
2023-01-31T18:01:14.026Z,101767.00
2023-01-31T18:20:20.986Z,101760.00
2023-01-31T18:23:08.927Z,101769.00
2023-01-31T18:43:29.857Z,101776.00
2023-01-31T18:45:57.292Z,101790.00
2023-01-31T18:48:24.698Z,101785.00
2023-01-31T18:50:54.947Z,101783.00
2023-01-31T18:53:24.792Z,101776.00
2023-01-31T18:56:05.898Z,101788.00
2023-01-31T18:58:38.715Z,101791.00
2023-01-31T19:01:25.265Z,101776.00
2023-01-31T19:03:54.097Z,101765.00
2023-01-31T19:06:35.487Z,101770.00
2023-01-31T19:09:05.195Z,101777.00
2023-01-31T19:24:08.640Z,101788.00
2023-01-31T19:26:39.159Z,101789.00
2023-01-31T19:29:09.685Z,101791.00
2023-01-31T19:31:37.247Z,101793.00
2023-01-31T19:34:07.008Z,101788.00
2023-01-31T19:36:38.222Z,101798.00
2023-01-31T19:39:11.433Z,101801.00
2023-01-31T19:41:39.421Z,101808.00
2023-01-31T19:44:06.867Z,101817.00
2023-01-31T20:02:52.764Z,101808.00
2023-01-31T20:05:20.261Z,101802.00
2023-01-31T20:07:48.285Z,101814.00
2023-01-31T20:10:15.575Z,101808.00
2023-01-31T20:12:42.776Z,101811.00
2023-01-31T20:24:07.466Z,101802.00
2023-01-31T20:26:35.510Z,101803.00
2023-01-31T20:29:02.804Z,101808.00
2023-01-31T20:31:30.364Z,101802.00
2023-01-31T20:35:12.512Z,101801.00
2023-01-31T20:38:35.922Z,101806.00
2023-01-31T20:41:06.125Z,101814.00
2023-01-31T20:43:53.260Z,101803.00
2023-01-31T20:46:20.655Z,101790.00
2023-01-31T20:52:57.770Z,101784.00
2023-01-31T20:55:25.028Z,101781.00
2023-01-31T20:57:52.565Z,101774.00
2023-01-31T21:00:22.335Z,101782.00
2023-01-31T21:02:50.467Z,101765.00
2023-01-31T21:05:18.793Z,101762.00
2023-01-31T21:07:46.482Z,101757.00
2023-01-31T21:10:14.389Z,101760.00
2023-01-31T21:12:41.705Z,101765.00
2023-01-31T21:15:09.986Z,101764.00
2023-01-31T21:17:40.331Z,101768.00
2023-01-31T21:20:13.567Z,101744.00
2023-01-31T21:23:04.132Z,101764.00
2023-01-31T21:25:31.707Z,101770.00
2023-01-31T21:27:58.864Z,101781.00
2023-01-31T21:30:26.623Z,101783.00
2023-01-31T21:32:53.948Z,101769.00
2023-01-31T21:35:23.548Z,101769.00
2023-01-31T21:37:51.037Z,101758.00
2023-01-31T21:40:19.326Z,101767.00
2023-01-31T21:42:53.735Z,101758.00
2023-01-31T21:45:40.221Z,101760.00
2023-01-31T21:48:29.541Z,101765.00
2023-01-31T21:50:57.822Z,101760.00
2023-01-31T21:53:29.141Z,101758.00
2023-01-31T21:56:10.242Z,101756.00
2023-01-31T21:58:42.865Z,101755.00
2023-01-31T22:01:20.372Z,101757.00
2023-01-31T22:03:50.916Z,101754.00
2023-01-31T22:06:25.437Z,101747.00
2023-01-31T22:08:55.754Z,101739.00
2023-01-31T22:11:23.663Z,101738.00
2023-01-31T22:13:56.015Z,101734.00
2023-01-31T22:16:23.508Z,101732.00
2023-01-31T22:18:51.081Z,101731.00
2023-01-31T22:21:28.107Z,101745.00
2023-01-31T22:23:58.574Z,101738.00
2023-01-31T22:26:36.341Z,101726.00
2023-01-31T22:29:07.609Z,101724.00
2023-01-31T22:31:36.044Z,101713.00
2023-01-31T22:34:07.388Z,101724.00
2023-01-31T22:36:35.631Z,101721.00
2023-01-31T22:39:03.123Z,101728.00
2023-01-31T22:45:55.475Z,101726.00
2023-01-31T22:48:24.731Z,101725.00
2023-01-31T22:51:01.797Z,101719.00
2023-01-31T22:53:34.272Z,101712.00
2023-01-31T22:56:08.469Z,101709.00
2023-01-31T22:58:35.897Z,101702.00
2023-01-31T23:01:03.658Z,101694.00
2023-01-31T23:03:30.966Z,101704.00
2023-01-31T23:05:58.107Z,101705.00
2023-01-31T23:08:25.337Z,101699.00
2023-01-31T23:10:52.612Z,101708.00
2023-01-31T23:13:19.779Z,101703.00
2023-01-31T23:15:47.615Z,101696.00
2023-01-31T23:18:17.935Z,101703.00
2023-01-31T23:20:45.227Z,101684.00
2023-01-31T23:23:12.752Z,101697.00
2023-01-31T23:25:40.317Z,101703.00
2023-01-31T23:28:07.508Z,101711.00
2023-01-31T23:30:35.099Z,101698.00
2023-01-31T23:33:02.281Z,101696.00
2023-01-31T23:35:29.452Z,101698.00
2023-01-31T23:37:57.210Z,101699.00
2023-01-31T23:40:24.507Z,101696.00
2023-01-31T23:42:51.689Z,101705.00
2023-01-31T23:45:19.034Z,101705.00
2023-01-31T23:47:46.285Z,101706.00
2023-01-31T23:50:13.506Z,101712.00
2023-01-31T23:52:40.796Z,101711.00
2023-01-31T23:55:08.446Z,101708.00
2023-01-31T23:57:35.699Z,101715.00
